Flight Track Log - Related Links

Times and Time Zones

All times are in EDT time to prevent confusion due to time zone crossing. See the EJA727 flight status page for this flight to view local times or setup timezone preferences in your user account.

Time Position Orientation Groundspeed Altitude Reporting Facility
EDT Latitude Longitude Course Direction KTS MPH feet Rate Location/Type
Mon 01:56:03 PM 43.0028 -73.9789 176° South 257 296 5,200  Level Boston Center
Mon 01:58:38 PM 42.8133 -73.9600 176° South 286 329 13,400 1,920 Climbing Boston Center
Mon 02:00:00 PM 42.7079 -74.0248 204° Southwest  Level FlightAware Approximate
Mon 02:00:38 PM 42.5975 -74.0422 204° Southwest 375 432 14,000  Level Boston Center
Mon 02:01:38 PM 42.4989 -74.0819 197° South 397 457 14,000  Level Boston Center
Mon 02:02:38 PM 42.3964 -74.1214 196° South 392 451 14,000 -150 Level Boston Center
Mon 02:04:00 PM 42.2843 -74.1601 194° South  Level FlightAware Approximate
Mon 02:05:38 PM 42.1147 -74.2706 208° Southwest 355 409 13,400  Level Boston Center
Mon 02:06:38 PM 42.0389 -74.3242 208° Southwest 318 366 12,300 -1,233 Descending Boston Center
Mon 02:08:00 PM 41.9322 -74.3842 208° Southwest  Level FlightAware Approximate
Mon 02:08:38 PM 41.9017 -74.4261 208° Southwest 291 335 9,700  Level Boston Center
Mon 02:10:00 PM 41.8036 -74.4847 204° Southwest  Level FlightAware Approximate
Mon 02:11:00 PM 41.7583 -74.5106 208° Southwest  Level FlightAware Approximate
Mon 02:11:38 PM 41.6892 -74.5361 204° Southwest 276 318 8,100  Level Boston Center
Mon 02:13:00 PM 41.5827 -74.5543 185° South  Level FlightAware Approximate
Mon 02:13:50 PM 41.5239 -74.5697 185° South 276 318 8,000  Level Boston Center
Mon 02:16:05 PM 41.3667 -74.6167 193° South 263 303 6,000 -738 Descending New York TRACON
Mon 02:17:05 PM 41.2833 -74.6167 180° South 267 307 5,600 -575 Descending New York TRACON
Mon 02:19:00 PM 41.1445 -74.6796 194° South  Level FlightAware Approximate
Mon 02:20:05 PM 41.0833 -74.5167 194° South 260 299 3,700  Level New York TRACON
Mon 02:22:00 PM 40.9879 -74.3680 108° East  Level FlightAware Approximate
Mon 02:24:05 PM 40.8333 -74.3500 114° Southeast 249 287 3,000  Level New York TRACON
Mon 02:26:00 PM 40.8447 -74.1563 114° Southeast  Level Estimated
Mon 02:28:05 PM 40.8000 -74.1333 114° Southeast 191 220 1,400  Level New York TRACON
Mon 02:29:00 PM 40.8500 -74.0500 114° Southeast  Level FlightAware Approximate
Mon 02:30:00 PM 40.8500 -74.0500 114° Southeast  Level FlightAware Approximate
Mon 02:33:00 PM 40.8501 -74.0608 114° Southeast  Level Estimated
Mon 02:37:00 PM 40.8501 -74.0608 114° Southeast  Level Estimated
Mon 02:38:00 PM 40.8501 -74.0608 114° Southeast  Level Estimated

Login

Don't have an account? Register now (free) for customized features, flight alerts, and more!